IBE334 KLAX-LEPA
Flight info
| Callsign | IBE334 |
|---|---|
| Flight time | N/A |
| Altitude | 37000 |
| Route | ORCKA5 BEALE Q842 WINEN PUC SNAKY HEITY WILDA DPR/N0485F330 GOKPE SEGAN 53N080W 55N070W/N0485F350 BOKTO/M082F370 57N050W 57N040W 56N030W 54N020W LIMRI/N0469F370 XETBO/N0471F390 GIPER/M082F390 TULTA/N0472F390 NENEM BADRU P152 PPN/N0472F400 P152 RONKO M601 CAVES/N0472F390 BCN LORES LORES2R |
| Aircraft | A343/H-VGDW/C |
Departure
| Time | 2026-05-06 03:44 |
|---|---|
| Airport | Los Angeles International Airport (KLAX) |
Arrival
| Time | N/A |
|---|---|
| Airport | Palma de Mallorca Airport (LEPA) |
| Time | Latitude | Longitude | Altitude | Speed | Heading |
|---|---|---|---|---|---|
| 2026-05-06 03:14 | 33.94021 | -118.41079 | 130 ft | 0 kts | 83° |
| 2026-05-06 03:17 | 33.94021 | -118.41080 | 129 ft | 0 kts | 83° |
| 2026-05-06 03:31 | 33.94019 | -118.41101 | 124 ft | 3 kts | 83° |
| 2026-05-06 03:31 | 33.94017 | -118.41123 | 125 ft | 3 kts | 83° |
| 2026-05-06 03:31 | 33.94014 | -118.41146 | 124 ft | 3 kts | 106° |
| 2026-05-06 03:32 | 33.94023 | -118.41167 | 126 ft | 3 kts | 150° |
| 2026-05-06 03:32 | 33.94027 | -118.41170 | 124 ft | 0 kts | 161° |
| 2026-05-06 03:36 | 33.94025 | -118.41171 | 126 ft | 1 kts | 173° |
| 2026-05-06 03:36 | 33.93983 | -118.41175 | 127 ft | 10 kts | 182° |
| 2026-05-06 03:36 | 33.93914 | -118.41170 | 124 ft | 10 kts | 174° |
| 2026-05-06 03:36 | 33.93846 | -118.41160 | 127 ft | 10 kts | 173° |
| 2026-05-06 03:37 | 33.93784 | -118.41138 | 127 ft | 8 kts | 142° |
| 2026-05-06 03:37 | 33.93771 | -118.41072 | 125 ft | 10 kts | 88° |
| 2026-05-06 03:37 | 33.93779 | -118.40974 | 129 ft | 12 kts | 82° |
| 2026-05-06 03:37 | 33.93791 | -118.40864 | 126 ft | 15 kts | 82° |
| 2026-05-06 03:38 | 33.93806 | -118.40727 | 128 ft | 17 kts | 83° |
| 2026-05-06 03:38 | 33.93819 | -118.40577 | 126 ft | 18 kts | 83° |
| 2026-05-06 03:38 | 33.93835 | -118.40417 | 127 ft | 20 kts | 83° |
| 2026-05-06 03:38 | 33.93852 | -118.40246 | 125 ft | 21 kts | 82° |
| 2026-05-06 03:39 | 33.93872 | -118.40067 | 127 ft | 22 kts | 82° |
| 2026-05-06 03:39 | 33.93893 | -118.39876 | 126 ft | 23 kts | 83° |
| 2026-05-06 03:39 | 33.93911 | -118.39678 | 124 ft | 24 kts | 84° |
| 2026-05-06 03:39 | 33.93927 | -118.39519 | 124 ft | 17 kts | 82° |
| 2026-05-06 03:40 | 33.93943 | -118.39370 | 126 ft | 19 kts | 83° |
| 2026-05-06 03:40 | 33.93961 | -118.39205 | 127 ft | 21 kts | 83° |
| 2026-05-06 03:40 | 33.93980 | -118.39024 | 128 ft | 23 kts | 83° |
| 2026-05-06 03:40 | 33.93998 | -118.38832 | 125 ft | 23 kts | 83° |
| 2026-05-06 03:41 | 33.94018 | -118.38649 | 126 ft | 21 kts | 83° |
| 2026-05-06 03:41 | 33.94035 | -118.38473 | 126 ft | 21 kts | 84° |
| 2026-05-06 03:41 | 33.94052 | -118.38303 | 126 ft | 20 kts | 83° |
| 2026-05-06 03:41 | 33.94068 | -118.38155 | 129 ft | 12 kts | 82° |
| 2026-05-06 03:42 | 33.94078 | -118.38064 | 129 ft | 10 kts | 85° |
| 2026-05-06 03:42 | 33.94043 | -118.38011 | 127 ft | 9 kts | 160° |
| 2026-05-06 03:42 | 33.93989 | -118.38044 | 125 ft | 10 kts | 246° |
| 2026-05-06 03:42 | 33.93970 | -118.38165 | 128 ft | 29 kts | 262° |
| 2026-05-06 03:43 | 33.93920 | -118.38653 | 129 ft | 86 kts | 263° |
| 2026-05-06 03:43 | 33.93824 | -118.39576 | 125 ft | 135 kts | 263° |
| 2026-05-06 03:43 | 33.93694 | -118.40864 | 127 ft | 174 kts | 262° |
| 2026-05-06 03:43 | 33.93525 | -118.42399 | 455 ft | 189 kts | 262° |
| 2026-05-06 03:44 | 33.93358 | -118.43939 | 1138 ft | 188 kts | 262° |
| 2026-05-06 03:44 | 33.93174 | -118.45528 | 1586 ft | 199 kts | 259° |
| 2026-05-06 03:44 | 33.92729 | -118.47202 | 1723 ft | 221 kts | 249° |
| 2026-05-06 03:44 | 33.92113 | -118.48984 | 2009 ft | 237 kts | 248° |
| 2026-05-06 03:45 | 33.91457 | -118.50833 | 2528 ft | 243 kts | 248° |
| 2026-05-06 03:45 | 33.90783 | -118.52744 | 2960 ft | 254 kts | 248° |
| 2026-05-06 03:45 | 33.90076 | -118.54760 | 3345 ft | 267 kts | 248° |
| 2026-05-06 03:45 | 33.89350 | -118.56832 | 3948 ft | 271 kts | 248° |
| 2026-05-06 03:46 | 33.88614 | -118.58936 | 4560 ft | 275 kts | 248° |
| 2026-05-06 03:46 | 33.87866 | -118.61075 | 5107 ft | 280 kts | 248° |
| 2026-05-06 03:46 | 33.87104 | -118.63256 | 5690 ft | 284 kts | 248° |
| 2026-05-06 03:46 | 33.86335 | -118.65455 | 6321 ft | 287 kts | 249° |
| 2026-05-06 03:47 | 33.85503 | -118.67614 | 6835 ft | 292 kts | 241° |
| 2026-05-06 03:47 | 33.84215 | -118.69548 | 7290 ft | 301 kts | 221° |
| 2026-05-06 03:47 | 33.82377 | -118.70781 | 7768 ft | 309 kts | 195° |
| 2026-05-06 03:47 | 33.80230 | -118.70876 | 8209 ft | 313 kts | 164° |
| 2026-05-06 03:48 | 33.78326 | -118.69712 | 8815 ft | 308 kts | 135° |
| 2026-05-06 03:48 | 33.77092 | -118.67655 | 9320 ft | 304 kts | 108° |
| 2026-05-06 03:48 | 33.76771 | -118.65186 | 9804 ft | 300 kts | 82° |
| 2026-05-06 03:48 | 33.77418 | -118.62855 | 9975 ft | 294 kts | 56° |
| 2026-05-06 03:49 | 33.78745 | -118.60998 | 10010 ft | 294 kts | 42° |
| 2026-05-06 03:49 | 33.80255 | -118.59329 | 9995 ft | 296 kts | 42° |
| 2026-05-06 03:49 | 33.81756 | -118.57632 | 9999 ft | 296 kts | 43° |
| 2026-05-06 03:49 | 33.83212 | -118.55920 | 9995 ft | 297 kts | 44° |
| 2026-05-06 03:50 | 33.84668 | -118.54162 | 10018 ft | 297 kts | 45° |
| 2026-05-06 03:50 | 33.86116 | -118.52387 | 10150 ft | 300 kts | 45° |
| 2026-05-06 03:50 | 33.87604 | -118.50548 | 10316 ft | 313 kts | 45° |
| 2026-05-06 03:50 | 33.89155 | -118.48623 | 10504 ft | 326 kts | 45° |
| 2026-05-06 03:51 | 33.90758 | -118.46626 | 10692 ft | 339 kts | 45° |
| 2026-05-06 03:51 | 33.92416 | -118.44534 | 10887 ft | 351 kts | 47° |
| 2026-05-06 03:51 | 33.93936 | -118.42182 | 11148 ft | 360 kts | 54° |
| 2026-05-06 03:51 | 33.95365 | -118.39682 | 11555 ft | 365 kts | 55° |
| 2026-05-06 03:52 | 33.96798 | -118.37143 | 12002 ft | 368 kts | 55° |
| 2026-05-06 03:52 | 33.98241 | -118.34585 | 12493 ft | 370 kts | 54° |
| 2026-05-06 03:52 | 33.99697 | -118.32009 | 12996 ft | 373 kts | 54° |
| 2026-05-06 03:52 | 34.01143 | -118.29454 | 13469 ft | 375 kts | 54° |
| 2026-05-06 03:53 | 34.02624 | -118.26849 | 13929 ft | 378 kts | 54° |
| 2026-05-06 03:53 | 34.04114 | -118.24217 | 14373 ft | 381 kts | 54° |
| 2026-05-06 03:53 | 34.05611 | -118.21573 | 14820 ft | 383 kts | 54° |
| 2026-05-06 03:53 | 34.07114 | -118.18914 | 15287 ft | 385 kts | 54° |
| 2026-05-06 03:54 | 34.08625 | -118.16243 | 15738 ft | 387 kts | 54° |
| 2026-05-06 03:54 | 34.10145 | -118.13554 | 16177 ft | 389 kts | 54° |
| 2026-05-06 03:54 | 34.11672 | -118.10851 | 16618 ft | 391 kts | 54° |
| 2026-05-06 03:54 | 34.13209 | -118.08136 | 17062 ft | 393 kts | 54° |
| 2026-05-06 03:55 | 34.14750 | -118.05403 | 17504 ft | 395 kts | 54° |
| 2026-05-06 03:55 | 34.16302 | -118.02644 | 17863 ft | 399 kts | 54° |
| 2026-05-06 03:55 | 34.17847 | -117.99898 | 18298 ft | 401 kts | 54° |
| 2026-05-06 03:55 | 34.19417 | -117.97105 | 18681 ft | 403 kts | 54° |
| 2026-05-06 03:56 | 34.20995 | -117.94297 | 19099 ft | 404 kts | 54° |
| 2026-05-06 03:56 | 34.22573 | -117.91487 | 19510 ft | 405 kts | 55° |
| 2026-05-06 03:56 | 34.24154 | -117.88669 | 19934 ft | 406 kts | 55° |
| 2026-05-06 03:56 | 34.25740 | -117.85841 | 20344 ft | 407 kts | 55° |
| 2026-05-06 03:57 | 34.27328 | -117.83007 | 20740 ft | 407 kts | 55° |
| 2026-05-06 03:57 | 34.28919 | -117.80166 | 21119 ft | 409 kts | 55° |
| 2026-05-06 03:57 | 34.30513 | -117.77315 | 21495 ft | 410 kts | 55° |
| 2026-05-06 03:57 | 34.32116 | -117.74449 | 21849 ft | 412 kts | 55° |
| 2026-05-06 03:58 | 34.33699 | -117.71609 | 22222 ft | 413 kts | 56° |
| 2026-05-06 03:58 | 34.35139 | -117.68605 | 22574 ft | 415 kts | 64° |
| 2026-05-06 03:58 | 34.36285 | -117.65395 | 22932 ft | 416 kts | 67° |
| 2026-05-06 03:58 | 34.37354 | -117.62130 | 23302 ft | 417 kts | 67° |
| 2026-05-06 03:59 | 34.38415 | -117.58858 | 23664 ft | 418 kts | 67° |
| 2026-05-06 03:59 | 34.39481 | -117.55574 | 23957 ft | 419 kts | 67° |
| 2026-05-06 03:59 | 34.40548 | -117.52290 | 24283 ft | 419 kts | 67° |
| 2026-05-06 03:59 | 34.41615 | -117.49008 | 24613 ft | 419 kts | 67° |
| 2026-05-06 04:00 | 34.42681 | -117.45727 | 24925 ft | 419 kts | 67° |
| 2026-05-06 04:00 | 34.43749 | -117.42438 | 25198 ft | 420 kts | 67° |
| 2026-05-06 04:00 | 34.44818 | -117.39145 | 25502 ft | 420 kts | 67° |
| 2026-05-06 04:00 | 34.45888 | -117.35847 | 25855 ft | 420 kts | 67° |
| 2026-05-06 04:01 | 34.46955 | -117.32552 | 26155 ft | 420 kts | 67° |
| 2026-05-06 04:01 | 34.48008 | -117.29298 | 26440 ft | 421 kts | 67° |
| 2026-05-06 04:01 | 34.49075 | -117.26000 | 26739 ft | 421 kts | 67° |
| 2026-05-06 04:01 | 34.50142 | -117.22693 | 27009 ft | 421 kts | 67° |
| 2026-05-06 04:02 | 34.51208 | -117.19389 | 27263 ft | 421 kts | 67° |
| 2026-05-06 04:02 | 34.52275 | -117.16079 | 27476 ft | 421 kts | 67° |
| 2026-05-06 04:02 | 34.53373 | -117.12790 | 27763 ft | 420 kts | 64° |
| 2026-05-06 04:02 | 34.54747 | -117.09668 | 27976 ft | 420 kts | 57° |
| 2026-05-06 04:03 | 34.56475 | -117.06826 | 28311 ft | 418 kts | 51° |
| 2026-05-06 04:03 | 34.58323 | -117.04110 | 28603 ft | 417 kts | 51° |
| 2026-05-06 04:03 | 34.60185 | -117.01410 | 28834 ft | 418 kts | 51° |
| 2026-05-06 04:03 | 34.62027 | -116.98738 | 29077 ft | 418 kts | 51° |
| 2026-05-06 04:04 | 34.63885 | -116.96035 | 29390 ft | 416 kts | 51° |
| 2026-05-06 04:04 | 34.65733 | -116.93340 | 29698 ft | 414 kts | 51° |
| 2026-05-06 04:04 | 34.67570 | -116.90659 | 30072 ft | 411 kts | 51° |
| 2026-05-06 04:04 | 34.69393 | -116.87995 | 30342 ft | 410 kts | 51° |
| 2026-05-06 04:05 | 34.73057 | -116.82634 | 30484 ft | 415 kts | 51° |
| 2026-05-06 04:05 | 34.74902 | -116.79931 | 30647 ft | 415 kts | 51° |
| 2026-05-06 04:05 | 34.76747 | -116.77225 | 30770 ft | 417 kts | 51° |
| 2026-05-06 04:06 | 34.78598 | -116.74509 | 30900 ft | 417 kts | 51° |
| 2026-05-06 04:06 | 34.80424 | -116.71827 | 31072 ft | 417 kts | 51° |
| 2026-05-06 04:06 | 34.82280 | -116.69099 | 31178 ft | 419 kts | 51° |
| 2026-05-06 04:06 | 34.84140 | -116.66363 | 31293 ft | 420 kts | 51° |
| 2026-05-06 04:07 | 34.86009 | -116.63619 | 31414 ft | 421 kts | 50° |
| 2026-05-06 04:07 | 34.87962 | -116.60959 | 31520 ft | 422 kts | 47° |
| 2026-05-06 04:07 | 34.91954 | -116.55708 | 31869 ft | 420 kts | 48° |
| 2026-05-06 04:08 | 34.93931 | -116.53088 | 32042 ft | 420 kts | 48° |
| 2026-05-06 04:08 | 34.95905 | -116.50459 | 32102 ft | 422 kts | 48° |
| 2026-05-06 04:08 | 34.97886 | -116.47812 | 32211 ft | 422 kts | 48° |
| 2026-05-06 04:08 | 34.99835 | -116.45205 | 32326 ft | 422 kts | 48° |
| 2026-05-06 04:09 | 35.01815 | -116.42551 | 32429 ft | 423 kts | 48° |
| 2026-05-06 04:09 | 35.03793 | -116.39899 | 32576 ft | 423 kts | 48° |
| 2026-05-06 04:09 | 35.07754 | -116.34577 | 32764 ft | 424 kts | 48° |
| 2026-05-06 04:10 | 35.09739 | -116.31907 | 32868 ft | 425 kts | 48° |
| 2026-05-06 04:10 | 35.11729 | -116.29228 | 32883 ft | 428 kts | 48° |
| 2026-05-06 04:10 | 35.15752 | -116.23805 | 32885 ft | 434 kts | 48° |
| 2026-05-06 04:11 | 35.19801 | -116.18338 | 32882 ft | 440 kts | 48° |
| 2026-05-06 04:11 | 35.23927 | -116.12760 | 32895 ft | 440 kts | 48° |
| 2026-05-06 04:12 | 35.27991 | -116.07256 | 32891 ft | 435 kts | 48° |
| 2026-05-06 04:12 | 35.32046 | -116.01755 | 32892 ft | 435 kts | 48° |
| 2026-05-06 04:13 | 35.36090 | -115.96260 | 32905 ft | 434 kts | 48° |
| 2026-05-06 04:13 | 35.40090 | -115.90817 | 32907 ft | 431 kts | 48° |
| 2026-05-06 04:14 | 35.44100 | -115.85349 | 32924 ft | 431 kts | 49° |
| 2026-05-06 04:14 | 35.48099 | -115.79889 | 32928 ft | 430 kts | 49° |
| 2026-05-06 04:15 | 35.52094 | -115.74426 | 32934 ft | 430 kts | 49° |
| 2026-05-06 04:15 | 35.56060 | -115.68993 | 32936 ft | 430 kts | 49° |
| 2026-05-06 04:16 | 35.60049 | -115.63520 | 32936 ft | 430 kts | 48° |
| 2026-05-06 04:16 | 35.64049 | -115.58024 | 32945 ft | 433 kts | 48° |
| 2026-05-06 04:17 | 35.68065 | -115.52496 | 32941 ft | 433 kts | 48° |
| 2026-05-06 04:17 | 35.72078 | -115.46971 | 32944 ft | 433 kts | 49° |
| 2026-05-06 04:18 | 35.76058 | -115.41467 | 32947 ft | 433 kts | 49° |
| 2026-05-06 04:18 | 35.80065 | -115.35920 | 32941 ft | 433 kts | 49° |
| 2026-05-06 04:19 | 35.84070 | -115.30370 | 32945 ft | 434 kts | 49° |
| 2026-05-06 04:19 | 35.88094 | -115.24783 | 32944 ft | 437 kts | 49° |
| 2026-05-06 04:20 | 35.92102 | -115.19210 | 32944 ft | 433 kts | 49° |
| 2026-05-06 04:20 | 35.96089 | -115.13657 | 32944 ft | 432 kts | 49° |
| 2026-05-06 04:21 | 36.00040 | -115.08145 | 32940 ft | 431 kts | 49° |
| 2026-05-06 04:21 | 36.04007 | -115.02601 | 32913 ft | 431 kts | 49° |
| 2026-05-06 04:22 | 36.07986 | -114.97032 | 32897 ft | 435 kts | 49° |
| 2026-05-06 04:23 | 36.14041 | -114.88540 | 32846 ft | 442 kts | 49° |
| 2026-05-06 04:23 | 36.18325 | -114.83105 | 32840 ft | 442 kts | 39° |
| 2026-05-06 04:24 | 36.23476 | -114.79073 | 32832 ft | 439 kts | 31° |
| 2026-05-06 04:24 | 36.28858 | -114.75505 | 32821 ft | 439 kts | 30° |
| 2026-05-06 04:25 | 36.34254 | -114.71994 | 32809 ft | 438 kts | 30° |
| 2026-05-06 04:25 | 36.39630 | -114.68457 | 32798 ft | 437 kts | 31° |
| 2026-05-06 04:26 | 36.44951 | -114.64924 | 32788 ft | 437 kts | 31° |
| 2026-05-06 04:26 | 36.50298 | -114.61359 | 32780 ft | 435 kts | 31° |
| 2026-05-06 04:27 | 36.55619 | -114.57807 | 32781 ft | 434 kts | 31° |
| 2026-05-06 04:27 | 36.60930 | -114.54256 | 32780 ft | 433 kts | 31° |
| 2026-05-06 04:28 | 36.66234 | -114.50704 | 32782 ft | 433 kts | 31° |
| 2026-05-06 04:28 | 36.71542 | -114.47147 | 32783 ft | 433 kts | 31° |
| 2026-05-06 04:29 | 36.76669 | -114.43339 | 32778 ft | 431 kts | 34° |
| 2026-05-06 04:29 | 36.81693 | -114.39268 | 32783 ft | 431 kts | 35° |
| 2026-05-06 04:30 | 36.86730 | -114.35217 | 32789 ft | 431 kts | 34° |
| 2026-05-06 04:30 | 36.91799 | -114.31205 | 32801 ft | 432 kts | 34° |
| 2026-05-06 04:31 | 36.96845 | -114.27234 | 32796 ft | 432 kts | 34° |
| 2026-05-06 04:31 | 37.01926 | -114.23230 | 32788 ft | 432 kts | 33° |
| 2026-05-06 04:32 | 37.07006 | -114.19219 | 32801 ft | 432 kts | 33° |
| 2026-05-06 04:32 | 37.12082 | -114.15203 | 32802 ft | 431 kts | 33° |
| 2026-05-06 04:33 | 37.17157 | -114.11181 | 32808 ft | 432 kts | 33° |
| 2026-05-06 04:33 | 37.22197 | -114.07180 | 32810 ft | 432 kts | 33° |
| 2026-05-06 04:34 | 37.27279 | -114.03138 | 32814 ft | 434 kts | 33° |
| 2026-05-06 04:34 | 37.32392 | -113.99065 | 32820 ft | 436 kts | 33° |
| 2026-05-06 04:35 | 37.37518 | -113.94977 | 32825 ft | 437 kts | 33° |
| 2026-05-06 04:35 | 37.42644 | -113.90881 | 32822 ft | 436 kts | 33° |
| 2026-05-06 04:36 | 37.47762 | -113.86785 | 32825 ft | 436 kts | 33° |
| 2026-05-06 04:36 | 37.52881 | -113.82682 | 32825 ft | 436 kts | 33° |
| 2026-05-06 04:37 | 37.57970 | -113.78595 | 32824 ft | 437 kts | 33° |
| 2026-05-06 04:37 | 37.63102 | -113.74467 | 32832 ft | 438 kts | 32° |
| 2026-05-06 04:38 | 37.68245 | -113.70324 | 32819 ft | 440 kts | 32° |
| 2026-05-06 04:38 | 37.73403 | -113.66161 | 32821 ft | 440 kts | 33° |
| 2026-05-06 04:39 | 37.78561 | -113.61992 | 32818 ft | 440 kts | 33° |
| 2026-05-06 04:39 | 37.83679 | -113.57848 | 32818 ft | 440 kts | 32° |
| 2026-05-06 04:40 | 37.88823 | -113.53676 | 32812 ft | 439 kts | 32° |
| 2026-05-06 04:40 | 37.93688 | -113.49008 | 32813 ft | 441 kts | 43° |
| 2026-05-06 04:41 | 37.97738 | -113.43157 | 32812 ft | 442 kts | 48° |
| 2026-05-06 04:41 | 38.01598 | -113.37067 | 32812 ft | 444 kts | 49° |
| 2026-05-06 04:42 | 38.05437 | -113.30915 | 32812 ft | 445 kts | 49° |
| 2026-05-06 04:42 | 38.09260 | -113.24811 | 32812 ft | 445 kts | 49° |
| 2026-05-06 04:43 | 38.13117 | -113.18669 | 32829 ft | 445 kts | 49° |
| 2026-05-06 04:43 | 38.16976 | -113.12522 | 32855 ft | 445 kts | 49° |